createdAt,value
2019-02-16T00:02:54.950Z,3.57
2019-02-16T00:07:02.882Z,3.51
2019-02-16T00:11:11.182Z,3.49
2019-02-16T00:15:19.499Z,3.38
2019-02-16T00:19:27.218Z,3.23
2019-02-16T00:23:35.039Z,3.13
2019-02-16T00:27:43.866Z,3.05
2019-02-16T00:31:52.355Z,2.91
2019-02-16T00:36:00.186Z,2.80
2019-02-16T00:40:08.913Z,2.68
2019-02-16T00:44:17.368Z,2.70
2019-02-16T00:48:26.163Z,2.53
2019-02-16T00:52:34.399Z,2.78
2019-02-16T00:56:42.739Z,2.75
2019-02-16T01:00:51.349Z,2.88
2019-02-16T01:04:59.495Z,2.68
2019-02-16T01:09:07.899Z,2.72
2019-02-16T01:13:16.317Z,2.96
2019-02-16T01:17:24.842Z,2.74
2019-02-16T01:21:34.400Z,2.72
2019-02-16T01:25:42.829Z,2.68
2019-02-16T01:29:51.048Z,2.80
2019-02-16T01:33:59.375Z,2.83
2019-02-16T01:38:07.377Z,2.96
2019-02-16T01:42:15.819Z,2.91
2019-02-16T01:46:24.053Z,3.02
2019-02-16T01:50:32.856Z,3.02
2019-02-16T01:54:40.471Z,3.24
2019-02-16T01:58:48.571Z,3.09
2019-02-16T02:02:56.906Z,3.03
2019-02-16T02:07:04.614Z,3.00
2019-02-16T02:11:13.148Z,2.99
2019-02-16T02:15:21.551Z,3.06
2019-02-16T02:19:29.479Z,3.07
2019-02-16T02:23:37.708Z,3.21
2019-02-16T02:27:46.009Z,3.37
2019-02-16T02:31:53.814Z,3.46
2019-02-16T02:36:01.736Z,3.43
2019-02-16T02:40:10.071Z,3.39
2019-02-16T02:44:17.829Z,3.21
2019-02-16T02:48:26.007Z,3.32
2019-02-16T02:52:33.610Z,3.25
2019-02-16T02:56:41.815Z,3.13
2019-02-16T03:00:50.262Z,3.08
2019-02-16T03:04:58.305Z,3.02
2019-02-16T03:09:06.821Z,2.98
2019-02-16T03:13:16.222Z,2.99
2019-02-16T03:17:24.349Z,3.00
2019-02-16T03:21:33.180Z,3.02
2019-02-16T03:25:43.056Z,2.95
2019-02-16T03:30:34.604Z,2.97
2019-02-16T03:35:04.593Z,3.03
2019-02-16T03:39:25.426Z,3.04
2019-02-16T03:43:33.114Z,2.96
2019-02-16T03:47:41.756Z,2.91
2019-02-16T03:51:49.676Z,2.91
2019-02-16T03:55:57.363Z,2.95
2019-02-16T04:00:06.037Z,3.00
2019-02-16T04:04:13.929Z,2.95
2019-02-16T04:08:22.148Z,2.90
2019-02-16T04:12:30.863Z,3.06
2019-02-16T04:16:38.783Z,3.04
2019-02-16T04:20:47.315Z,3.01
2019-02-16T04:24:56.124Z,3.05
2019-02-16T04:29:04.989Z,2.84
2019-02-16T04:33:13.141Z,2.85
2019-02-16T04:37:21.515Z,2.94
2019-02-16T04:41:29.027Z,2.93
2019-02-16T04:45:37.217Z,2.87
2019-02-16T04:49:45.565Z,2.77
2019-02-16T04:53:53.223Z,2.77
2019-02-16T04:58:01.383Z,2.74
2019-02-16T05:02:09.403Z,2.80
2019-02-16T05:06:17.348Z,2.85
2019-02-16T05:10:25.410Z,2.86
2019-02-16T05:14:33.083Z,2.92
2019-02-16T05:18:40.830Z,2.98
2019-02-16T05:22:48.674Z,2.97
2019-02-16T05:26:56.293Z,2.82
2019-02-16T05:31:05.064Z,2.79
2019-02-16T05:35:13.190Z,2.82
2019-02-16T05:39:21.014Z,2.90
2019-02-16T05:43:29.003Z,2.95
2019-02-16T05:47:37.463Z,2.97
2019-02-16T05:51:45.257Z,3.01
2019-02-16T05:55:53.561Z,3.06
2019-02-16T06:00:01.437Z,3.04
2019-02-16T06:04:09.803Z,3.10
2019-02-16T06:08:18.295Z,3.10
2019-02-16T06:12:26.021Z,3.14
2019-02-16T06:16:34.339Z,3.14
2019-02-16T06:20:42.153Z,3.17
2019-02-16T06:24:49.974Z,3.23
2019-02-16T06:28:58.087Z,3.22
2019-02-16T06:33:07.321Z,3.24
2019-02-16T06:37:25.391Z,3.23
2019-02-16T06:41:33.374Z,3.35
2019-02-16T06:45:41.532Z,3.51
2019-02-16T06:49:49.667Z,3.55
2019-02-16T06:53:57.340Z,3.40
2019-02-16T06:58:05.143Z,3.34
2019-02-16T07:02:13.629Z,3.42
2019-02-16T07:06:24.102Z,3.56
2019-02-16T07:10:32.313Z,3.78
2019-02-16T07:14:40.618Z,3.83
2019-02-16T07:18:57.440Z,3.74
2019-02-16T07:23:05.555Z,3.89
2019-02-16T07:27:13.789Z,3.90
2019-02-16T07:31:21.886Z,4.08
2019-02-16T07:35:30.371Z,4.14
2019-02-16T07:39:38.624Z,4.23
2019-02-16T07:44:04.536Z,4.31
2019-02-16T07:48:17.502Z,4.27
2019-02-16T07:52:33.109Z,4.46
2019-02-16T07:56:57.809Z,4.72
2019-02-16T08:01:24.619Z,4.81
2019-02-16T08:05:39.944Z,5.07
2019-02-16T08:10:06.701Z,5.15
2019-02-16T08:14:45.805Z,5.33
2019-02-16T08:19:16.119Z,5.46
2019-02-16T08:23:42.212Z,5.64
2019-02-16T08:28:13.904Z,5.42
2019-02-16T08:32:50.007Z,5.24
2019-02-16T08:37:08.076Z,5.34
2019-02-16T08:41:38.403Z,5.33
2019-02-16T08:46:09.522Z,5.35
2019-02-16T08:50:42.433Z,5.50
2019-02-16T08:55:18.493Z,5.58
2019-02-16T08:59:51.656Z,5.98
2019-02-16T09:04:17.800Z,5.88
2019-02-16T09:08:41.987Z,6.14
2019-02-16T09:13:11.850Z,6.07
2019-02-16T09:17:47.713Z,6.06
2019-02-16T09:22:07.807Z,6.35
2019-02-16T09:26:30.936Z,6.39
2019-02-16T09:31:07.547Z,6.60
2019-02-16T09:35:33.295Z,6.79
2019-02-16T09:40:15.280Z,6.85
2019-02-16T09:44:48.364Z,7.08
2019-02-16T09:49:15.540Z,6.90
2019-02-16T09:53:51.804Z,6.76
2019-02-16T09:58:30.734Z,6.91
2019-02-16T10:02:56.728Z,7.02
2019-02-16T10:07:30.525Z,7.59
2019-02-16T10:11:56.073Z,7.53
2019-02-16T10:16:35.048Z,8.12
2019-02-16T10:21:02.228Z,7.81
2019-02-16T10:25:44.337Z,7.49
2019-02-16T10:30:11.136Z,7.46
2019-02-16T10:34:37.234Z,7.47
2019-02-16T10:39:02.710Z,7.41
2019-02-16T10:43:33.461Z,7.57
2019-02-16T10:47:58.685Z,7.56
2019-02-16T10:52:14.526Z,7.69
2019-02-16T10:56:35.159Z,7.44
2019-02-16T11:01:02.089Z,7.36
2019-02-16T11:05:28.947Z,7.74
2019-02-16T11:10:11.071Z,7.81
2019-02-16T11:14:29.422Z,7.83
2019-02-16T11:18:56.623Z,7.60
2019-02-16T11:23:22.518Z,7.54
2019-02-16T11:27:47.891Z,7.64
2019-02-16T11:32:13.712Z,7.29
2019-02-16T11:36:49.489Z,7.61
2019-02-16T11:41:19.819Z,7.37
2019-02-16T11:45:38.419Z,6.97
2019-02-16T11:50:16.907Z,7.36
2019-02-16T11:54:45.207Z,7.46
2019-02-16T11:59:17.497Z,7.47
2019-02-16T12:03:41.014Z,7.52
2019-02-16T12:07:59.221Z,7.56
2019-02-16T12:12:31.126Z,7.70
2019-02-16T12:16:58.219Z,7.65
2019-02-16T12:21:25.123Z,7.81
2019-02-16T12:25:52.098Z,7.65
2019-02-16T12:30:17.012Z,7.56
2019-02-16T12:34:30.915Z,7.62
2019-02-16T12:38:51.098Z,7.35
2019-02-16T12:43:20.660Z,7.55
2019-02-16T12:47:38.246Z,7.55
2019-02-16T12:52:16.865Z,7.62
2019-02-16T12:56:47.155Z,7.63
2019-02-16T13:01:13.955Z,7.57
2019-02-16T13:05:58.938Z,7.46
2019-02-16T13:10:25.776Z,7.61
2019-02-16T13:14:54.855Z,7.93
2019-02-16T13:19:25.719Z,7.66
2019-02-16T13:23:58.608Z,7.59
2019-02-16T13:28:17.169Z,7.60
2019-02-16T13:32:49.571Z,7.27
2019-02-16T13:37:15.541Z,7.27
2019-02-16T13:41:36.307Z,7.26
2019-02-16T13:46:08.887Z,7.23
2019-02-16T13:50:36.096Z,7.09
2019-02-16T13:55:02.619Z,7.12
2019-02-16T13:59:28.589Z,7.04
2019-02-16T14:03:53.992Z,7.00
2019-02-16T14:08:23.691Z,6.98
2019-02-16T14:12:53.239Z,7.34
2019-02-16T14:17:23.129Z,7.48
2019-02-16T14:21:31.423Z,7.11
2019-02-16T14:25:45.747Z,6.97
2019-02-16T14:29:53.704Z,6.72
2019-02-16T14:34:01.937Z,6.80
2019-02-16T14:38:28.492Z,6.96
2019-02-16T14:42:36.807Z,6.98
2019-02-16T14:46:44.619Z,7.08
2019-02-16T14:50:52.325Z,6.72
2019-02-16T14:54:59.979Z,6.89
2019-02-16T14:59:08.718Z,6.69
2019-02-16T15:03:16.479Z,6.82
2019-02-16T15:07:24.396Z,6.70
2019-02-16T15:11:32.692Z,6.73
2019-02-16T15:15:40.501Z,6.88
2019-02-16T15:19:48.230Z,6.63
2019-02-16T15:23:55.950Z,6.91
2019-02-16T15:28:03.654Z,6.80
2019-02-16T15:32:11.951Z,6.67
2019-02-16T15:36:24.047Z,6.81
2019-02-16T15:40:29.305Z,6.83
2019-02-16T15:44:37.018Z,6.80
2019-02-16T15:48:44.845Z,6.88
2019-02-16T15:52:52.642Z,6.83
2019-02-16T15:57:00.690Z,6.87
2019-02-16T16:01:08.570Z,6.88
2019-02-16T16:05:16.791Z,6.85
2019-02-16T16:09:34.544Z,6.73
2019-02-16T16:14:16.364Z,6.62
2019-02-16T16:18:46.166Z,6.83
2019-02-16T16:23:18.849Z,6.58
2019-02-16T16:27:34.143Z,6.76
2019-02-16T16:31:52.243Z,6.77
2019-02-16T16:36:25.240Z,6.67
2019-02-16T16:40:58.421Z,6.50
2019-02-16T16:45:23.855Z,6.51
2019-02-16T16:50:05.514Z,6.56
2019-02-16T16:54:38.221Z,6.52
2019-02-16T16:59:07.944Z,6.36
2019-02-16T17:03:49.938Z,6.20
2019-02-16T17:08:24.145Z,5.94
2019-02-16T17:12:41.870Z,5.63
2019-02-16T17:17:08.937Z,5.33
2019-02-16T17:21:38.787Z,5.23
2019-02-16T17:26:04.273Z,5.15
2019-02-16T17:30:34.958Z,4.96
2019-02-16T17:35:00.973Z,4.61
2019-02-16T17:39:32.489Z,4.76
2019-02-16T17:44:05.546Z,4.32
2019-02-16T17:48:36.695Z,4.35
2019-02-16T17:53:18.584Z,4.02
2019-02-16T17:57:54.521Z,4.04
2019-02-16T18:02:13.592Z,4.08
2019-02-16T18:06:43.105Z,3.90
2019-02-16T18:11:12.969Z,3.90
2019-02-16T18:15:40.870Z,3.85
2019-02-16T18:19:57.188Z,3.90
2019-02-16T18:24:24.064Z,3.88
2019-02-16T18:28:46.692Z,3.73
2019-02-16T18:33:19.936Z,3.68
2019-02-16T18:37:43.665Z,3.73
2019-02-16T18:42:09.620Z,3.68
2019-02-16T18:46:42.370Z,3.68
2019-02-16T18:51:07.750Z,3.61
2019-02-16T18:55:34.569Z,3.46
2019-02-16T19:00:04.745Z,3.33
2019-02-16T19:04:34.136Z,3.37
2019-02-16T19:09:13.485Z,3.49
2019-02-16T19:13:44.481Z,3.45
2019-02-16T19:18:08.118Z,3.27
2019-02-16T19:22:34.833Z,3.26
2019-02-16T19:27:00.506Z,3.30
2019-02-16T19:31:22.710Z,3.28
2019-02-16T19:35:48.127Z,3.08
2019-02-16T19:40:13.622Z,3.02
2019-02-16T19:44:32.839Z,3.01
2019-02-16T19:49:08.811Z,2.79
2019-02-16T19:53:38.900Z,2.92
2019-02-16T19:57:54.879Z,2.81
2019-02-16T20:02:39.649Z,3.06
2019-02-16T20:07:06.674Z,2.99
2019-02-16T20:11:32.809Z,2.89
2019-02-16T20:15:56.024Z,2.74
2019-02-16T20:20:21.106Z,2.72
2019-02-16T20:24:57.205Z,2.87
2019-02-16T20:29:24.335Z,2.79
2019-02-16T20:33:48.231Z,2.87
2019-02-16T20:38:18.198Z,2.80
2019-02-16T20:42:41.716Z,2.88
2019-02-16T20:47:01.209Z,2.75
2019-02-16T20:51:30.699Z,2.75
2019-02-16T20:55:50.831Z,2.87
2019-02-16T21:00:08.001Z,2.84
2019-02-16T21:04:34.754Z,2.76
2019-02-16T21:08:52.213Z,2.63
2019-02-16T21:13:09.263Z,2.68
2019-02-16T21:17:38.682Z,2.75
2019-02-16T21:22:18.037Z,2.81
2019-02-16T21:26:53.886Z,2.59
2019-02-16T21:31:26.515Z,2.69
2019-02-16T21:36:05.440Z,2.63
2019-02-16T21:40:37.849Z,2.44
2019-02-16T21:45:04.565Z,2.52
2019-02-16T21:49:29.115Z,2.17
2019-02-16T21:53:50.350Z,2.29
2019-02-16T21:58:20.174Z,2.34
2019-02-16T22:02:37.867Z,2.25
2019-02-16T22:06:58.569Z,2.09
2019-02-16T22:11:24.258Z,2.04
2019-02-16T22:15:32.905Z,2.10
2019-02-16T22:19:40.536Z,1.97
2019-02-16T22:23:48.648Z,1.93
2019-02-16T22:27:56.991Z,1.92
2019-02-16T22:32:04.890Z,1.96
2019-02-16T22:36:12.427Z,1.91
2019-02-16T22:40:20.772Z,1.97
2019-02-16T22:44:28.511Z,2.09
2019-02-16T22:48:36.755Z,2.24
2019-02-16T22:52:44.551Z,2.16
2019-02-16T22:56:52.332Z,2.09
2019-02-16T23:01:00.836Z,1.98
2019-02-16T23:05:10.219Z,2.02
2019-02-16T23:09:28.888Z,2.14
2019-02-16T23:13:37.153Z,2.19
2019-02-16T23:17:44.823Z,2.18
2019-02-16T23:21:53.214Z,2.24
2019-02-16T23:26:00.847Z,2.26
2019-02-16T23:30:08.962Z,2.27
2019-02-16T23:34:17.064Z,2.25
2019-02-16T23:38:24.863Z,2.02
2019-02-16T23:42:32.979Z,2.12
2019-02-16T23:46:40.804Z,2.17
2019-02-16T23:50:48.514Z,2.16
2019-02-16T23:54:56.213Z,2.20
2019-02-16T23:59:03.688Z,2.06
